createdAt,value
2024-01-25T00:00:52.550Z,57.35
2024-01-25T00:01:52.527Z,47.16
2024-01-25T00:02:52.342Z,46.35
2024-01-25T00:03:52.417Z,53.87
2024-01-25T00:04:52.373Z,48.16
2024-01-25T00:05:52.370Z,49.85
2024-01-25T00:06:52.577Z,48.19
2024-01-25T00:07:52.443Z,51.39
2024-01-25T00:08:52.257Z,54.52
2024-01-25T00:09:52.317Z,56.26
2024-01-25T00:10:52.516Z,57.25
2024-01-25T00:11:52.244Z,53.91
2024-01-25T00:12:52.270Z,54.48
2024-01-25T00:13:52.268Z,50.26
2024-01-25T00:14:52.217Z,47.64
2024-01-25T00:16:24.117Z,57.85
2024-01-25T00:16:52.237Z,51.99
2024-01-25T00:17:52.298Z,48.66
2024-01-25T00:18:52.274Z,53.67
2024-01-25T00:19:52.309Z,56.98
2024-01-25T00:20:52.163Z,52.16
2024-01-25T00:21:52.260Z,57.62
2024-01-25T00:22:52.267Z,54.60
2024-01-25T00:23:52.095Z,57.09
2024-01-25T00:24:52.228Z,53.10
2024-01-25T00:25:52.128Z,54.09
2024-01-25T00:26:52.103Z,53.15
2024-01-25T00:27:52.256Z,58.10
2024-01-25T00:28:52.179Z,56.68
2024-01-25T00:29:52.099Z,54.25
2024-01-25T00:30:52.057Z,46.88
2024-01-25T00:31:52.084Z,48.28
2024-01-25T00:32:52.149Z,60.40
2024-01-25T00:33:52.180Z,55.39
2024-01-25T00:34:52.278Z,54.48
2024-01-25T00:35:52.015Z,51.76
2024-01-25T00:36:52.025Z,52.41
2024-01-25T00:37:52.017Z,53.76
2024-01-25T00:38:51.975Z,59.91
2024-01-25T00:39:51.956Z,58.66
2024-01-25T00:40:51.948Z,50.65
2024-01-25T00:41:51.950Z,45.78
2024-01-25T00:42:51.954Z,55.06
2024-01-25T00:43:51.923Z,56.97
2024-01-25T00:44:51.910Z,54.13
2024-01-25T00:45:51.928Z,55.76
2024-01-25T00:46:51.864Z,48.80
2024-01-25T00:47:51.902Z,48.99
2024-01-25T00:48:51.988Z,54.53
2024-01-25T00:49:51.946Z,54.25
2024-01-25T00:50:51.853Z,51.12
2024-01-25T00:51:51.853Z,55.93
2024-01-25T00:52:51.847Z,57.88
2024-01-25T00:53:51.819Z,52.78
2024-01-25T00:54:51.817Z,53.97
2024-01-25T00:55:51.788Z,51.12
2024-01-25T00:56:51.768Z,53.96
2024-01-25T00:57:51.839Z,49.62
2024-01-25T00:58:51.776Z,45.24
2024-01-25T00:59:51.728Z,54.60
2024-01-25T01:00:51.896Z,56.38
2024-01-25T01:01:51.899Z,59.31
2024-01-25T01:02:51.727Z,59.76
2024-01-25T01:03:51.742Z,53.59
2024-01-25T01:04:51.874Z,54.19
2024-01-25T01:05:51.752Z,47.62
2024-01-25T01:06:51.758Z,53.67
2024-01-25T01:07:51.874Z,58.66
2024-01-25T01:08:51.649Z,57.39
2024-01-25T01:09:51.618Z,48.07
2024-01-25T01:10:51.629Z,54.74
2024-01-25T01:11:51.630Z,54.41
2024-01-25T01:12:51.680Z,54.78
2024-01-25T01:13:51.602Z,53.68
2024-01-25T01:14:51.612Z,54.75
2024-01-25T01:15:51.602Z,56.20
2024-01-25T01:16:51.548Z,61.09
2024-01-25T01:17:51.652Z,53.18
2024-01-25T01:18:51.683Z,51.80
2024-01-25T01:19:51.646Z,52.65
2024-01-25T01:20:51.568Z,54.25
2024-01-25T01:21:51.546Z,54.64
2024-01-25T01:22:51.495Z,46.47
2024-01-25T01:23:51.906Z,52.29
2024-01-25T01:24:51.500Z,56.29
2024-01-25T01:25:51.487Z,54.79
2024-01-25T01:26:51.510Z,57.87
2024-01-25T01:27:51.498Z,54.25
2024-01-25T01:28:51.435Z,56.19
2024-01-25T01:29:51.466Z,54.25
2024-01-25T01:30:51.394Z,53.45
2024-01-25T01:31:51.427Z,53.68
2024-01-25T01:32:51.680Z,49.00
2024-01-25T01:33:51.539Z,51.33
2024-01-25T01:34:51.480Z,49.58
2024-01-25T01:35:51.392Z,48.80
2024-01-25T01:36:51.421Z,57.97
2024-01-25T01:37:51.339Z,58.45
2024-01-25T01:38:51.356Z,48.84
2024-01-25T01:39:51.352Z,53.99
2024-01-25T01:40:51.303Z,58.61
2024-01-25T01:41:51.327Z,59.32
2024-01-25T01:42:51.353Z,53.20
2024-01-25T01:43:51.261Z,48.53
2024-01-25T01:44:51.267Z,55.44
2024-01-25T01:45:51.402Z,56.40
2024-01-25T01:46:51.240Z,51.55
2024-01-25T01:47:51.403Z,52.69
2024-01-25T01:48:51.420Z,53.40
2024-01-25T01:49:51.400Z,52.39
2024-01-25T01:50:51.321Z,48.45
2024-01-25T01:51:51.238Z,58.56
2024-01-25T01:52:51.181Z,54.80
2024-01-25T01:53:51.138Z,59.69
2024-01-25T01:54:51.252Z,52.76
2024-01-25T01:55:51.170Z,53.24
2024-01-25T01:56:51.125Z,53.48
2024-01-25T01:57:51.213Z,48.61
2024-01-25T01:58:51.103Z,57.39
2024-01-25T01:59:51.150Z,52.90
2024-01-25T02:00:51.234Z,49.51
2024-01-25T02:01:51.157Z,54.54
2024-01-25T02:02:51.079Z,59.31
2024-01-25T02:03:51.081Z,52.09
2024-01-25T02:04:51.199Z,53.15
2024-01-25T02:05:51.042Z,54.56
2024-01-25T02:06:51.173Z,58.53
2024-01-25T02:07:51.073Z,56.27
2024-01-25T02:08:51.018Z,47.64
2024-01-25T02:09:51.027Z,48.80
2024-01-25T02:10:50.964Z,54.27
2024-01-25T02:11:51.005Z,58.45
2024-01-25T02:12:51.019Z,59.72
2024-01-25T02:13:50.947Z,54.71
2024-01-25T02:14:50.931Z,56.36
2024-01-25T02:15:50.975Z,53.65
2024-01-25T02:16:50.973Z,59.85
2024-01-25T02:17:50.942Z,54.02
2024-01-25T02:18:50.985Z,55.24
2024-01-25T02:19:50.920Z,52.44
2024-01-25T02:20:50.894Z,55.40
2024-01-25T02:21:50.898Z,56.29
2024-01-25T02:22:50.874Z,50.22
2024-01-25T02:23:50.813Z,45.32
2024-01-25T02:24:50.883Z,52.64
2024-01-25T02:25:50.864Z,55.28
2024-01-25T02:26:50.790Z,57.61
2024-01-25T02:27:50.891Z,58.04
2024-01-25T02:28:50.785Z,62.63
2024-01-25T02:29:50.825Z,59.91
2024-01-25T02:30:50.818Z,55.68
2024-01-25T02:31:51.832Z,59.79
2024-01-25T02:32:50.924Z,56.53
2024-01-25T02:33:51.077Z,55.74
2024-01-25T02:34:50.838Z,50.72
2024-01-25T02:35:50.723Z,59.36
2024-01-25T02:36:50.726Z,62.81
2024-01-25T02:37:51.740Z,56.03
2024-01-25T02:38:50.678Z,54.88
2024-01-25T02:39:50.741Z,53.39
2024-01-25T02:40:50.656Z,53.95
2024-01-25T02:41:50.653Z,50.61
2024-01-25T02:42:50.714Z,56.76
2024-01-25T02:43:50.606Z,49.31
2024-01-25T02:44:50.598Z,52.24
2024-01-25T02:45:50.670Z,54.35
2024-01-25T02:46:50.592Z,56.24
2024-01-25T02:47:50.700Z,56.44
2024-01-25T02:48:50.699Z,56.25
2024-01-25T02:49:50.841Z,55.25
2024-01-25T02:50:50.550Z,54.82
2024-01-25T02:51:50.583Z,62.45
2024-01-25T02:52:50.541Z,53.88
2024-01-25T02:53:50.519Z,58.43
2024-01-25T02:54:50.563Z,51.55
2024-01-25T02:55:50.517Z,52.11
2024-01-25T02:56:50.514Z,51.38
2024-01-25T02:57:50.502Z,50.48
2024-01-25T02:58:50.483Z,52.50
2024-01-25T02:59:50.485Z,55.96
2024-01-25T03:00:50.665Z,51.74
2024-01-25T03:01:50.633Z,58.04
2024-01-25T03:02:50.426Z,58.49
2024-01-25T03:03:50.519Z,56.99
2024-01-25T03:04:50.702Z,59.55
2024-01-25T03:05:50.692Z,62.39
2024-01-25T03:06:50.591Z,64.29
2024-01-25T03:07:50.414Z,57.14
2024-01-25T03:08:50.372Z,56.72
2024-01-25T03:09:50.468Z,63.03
2024-01-25T03:10:50.375Z,56.65
2024-01-25T03:11:50.307Z,56.11
2024-01-25T03:12:50.357Z,58.87
2024-01-25T03:13:50.326Z,58.92
2024-01-25T03:14:50.295Z,59.13
2024-01-25T03:15:50.319Z,56.38
2024-01-25T03:16:51.299Z,55.58
2024-01-25T03:17:50.297Z,52.42
2024-01-25T03:18:50.319Z,58.00
2024-01-25T03:19:50.433Z,53.19
2024-01-25T03:20:50.235Z,56.57
2024-01-25T03:21:50.230Z,56.15
2024-01-25T03:22:50.240Z,56.19
2024-01-25T03:23:50.181Z,56.20
2024-01-25T03:24:50.258Z,65.08
2024-01-25T03:25:50.208Z,56.19
2024-01-25T03:26:50.170Z,61.52
2024-01-25T03:27:50.192Z,59.80
2024-01-25T03:28:50.173Z,58.40
2024-01-25T03:29:50.155Z,56.28
2024-01-25T03:30:50.187Z,59.60
2024-01-25T03:31:50.144Z,58.71
2024-01-25T03:32:50.234Z,59.84
2024-01-25T03:33:50.274Z,56.44
2024-01-25T03:34:50.367Z,59.80
2024-01-25T03:35:50.090Z,53.89
2024-01-25T03:36:50.126Z,58.79
2024-01-25T03:37:50.055Z,53.88
2024-01-25T03:38:50.065Z,54.78
2024-01-25T03:39:50.060Z,54.48
2024-01-25T03:40:50.050Z,58.08
2024-01-25T03:41:50.028Z,60.38
2024-01-25T03:43:02.946Z,51.82
2024-01-25T03:43:52.032Z,55.79
2024-01-25T03:44:50.007Z,57.23
2024-01-25T03:45:50.047Z,58.12
2024-01-25T03:46:49.950Z,61.22
2024-01-25T03:47:49.977Z,56.49
2024-01-25T03:48:50.012Z,55.61
2024-01-25T03:49:49.988Z,56.87
2024-01-25T03:50:49.999Z,56.65
2024-01-25T03:51:49.959Z,57.17
2024-01-25T03:52:49.900Z,59.35
2024-01-25T03:53:49.846Z,59.23
2024-01-25T03:54:49.902Z,60.43
2024-01-25T03:55:49.842Z,57.76
2024-01-25T03:56:49.869Z,56.81
2024-01-25T03:57:49.893Z,57.99
2024-01-25T03:58:49.869Z,57.96
2024-01-25T03:59:49.798Z,60.14
2024-01-25T04:00:49.916Z,53.86
2024-01-25T04:01:49.903Z,54.30
2024-01-25T04:02:49.835Z,59.02
2024-01-25T04:03:49.870Z,57.68
2024-01-25T04:04:49.841Z,59.27
2024-01-25T04:05:49.781Z,58.57
2024-01-25T04:06:49.933Z,58.27
2024-01-25T04:07:49.721Z,59.14
2024-01-25T04:08:49.751Z,56.54
2024-01-25T04:09:49.751Z,54.84
2024-01-25T04:10:49.680Z,55.87
2024-01-25T04:11:49.732Z,55.34
2024-01-25T04:12:49.714Z,58.36
2024-01-25T04:13:49.637Z,56.34
2024-01-25T04:14:49.671Z,53.28
2024-01-25T04:15:56.344Z,57.86
2024-01-25T04:16:49.670Z,54.90
2024-01-25T04:17:49.707Z,58.80
2024-01-25T04:18:49.749Z,55.60
2024-01-25T04:19:49.646Z,60.16
2024-01-25T04:20:49.585Z,56.90
2024-01-25T04:21:49.632Z,59.26
2024-01-25T04:22:49.572Z,60.08
2024-01-25T04:23:49.530Z,58.99
2024-01-25T04:24:49.633Z,59.92
2024-01-25T04:25:49.575Z,63.93
2024-01-25T04:26:49.501Z,60.64
2024-01-25T04:27:49.667Z,61.68
2024-01-25T04:28:49.503Z,60.95
2024-01-25T04:29:49.505Z,61.20
2024-01-25T04:30:49.500Z,61.57
2024-01-25T04:31:49.590Z,62.36
2024-01-25T04:32:49.551Z,61.93
2024-01-25T04:33:49.822Z,62.25
2024-01-25T04:34:49.640Z,60.97
2024-01-25T04:35:50.463Z,62.22
2024-01-25T04:36:49.469Z,61.32
2024-01-25T04:37:49.424Z,62.73
2024-01-25T04:38:49.394Z,62.44
2024-01-25T04:39:49.466Z,63.45
2024-01-25T04:40:49.440Z,62.61
2024-01-25T04:41:49.362Z,63.68
2024-01-25T04:42:49.441Z,64.56
2024-01-25T04:43:49.322Z,66.55
2024-01-25T04:44:49.322Z,62.29
2024-01-25T04:45:49.404Z,60.55
2024-01-25T04:46:49.328Z,62.30
2024-01-25T04:47:49.315Z,62.21
2024-01-25T04:48:49.394Z,62.18
2024-01-25T04:49:49.389Z,61.06
2024-01-25T04:50:49.261Z,60.91
2024-01-25T04:51:49.310Z,61.01
2024-01-25T04:52:49.295Z,63.37
2024-01-25T04:53:49.228Z,62.02
2024-01-25T04:54:49.285Z,62.93
2024-01-25T04:55:49.228Z,61.90
2024-01-25T04:56:49.247Z,62.39
2024-01-25T04:57:49.301Z,60.59
2024-01-25T04:58:49.211Z,60.35
2024-01-25T04:59:49.157Z,62.25
2024-01-25T05:00:49.355Z,63.05
2024-01-25T05:01:49.352Z,61.70
2024-01-25T05:02:49.159Z,61.15
2024-01-25T05:03:49.372Z,63.71
2024-01-25T05:04:49.262Z,63.06
2024-01-25T05:05:49.145Z,62.78
2024-01-25T05:06:49.145Z,65.12
2024-01-25T05:07:49.225Z,64.21
2024-01-25T05:08:49.169Z,63.13
2024-01-25T05:09:49.176Z,65.04
2024-01-25T05:10:50.055Z,62.24
2024-01-25T05:11:49.037Z,63.75
2024-01-25T05:12:49.050Z,62.31
2024-01-25T05:13:49.095Z,63.15
2024-01-25T05:14:49.024Z,62.49
2024-01-25T05:15:49.122Z,65.22
2024-01-25T05:16:49.049Z,66.18
2024-01-25T05:17:49.069Z,64.57
2024-01-25T05:18:49.125Z,62.21
2024-01-25T05:19:49.143Z,66.27
2024-01-25T05:20:49.002Z,65.39
2024-01-25T05:21:48.974Z,63.10
2024-01-25T05:22:48.966Z,62.73
2024-01-25T05:23:48.917Z,62.26
2024-01-25T05:24:48.986Z,64.03
2024-01-25T05:25:48.920Z,63.66
2024-01-25T05:26:48.906Z,65.76
2024-01-25T05:27:48.888Z,65.33
2024-01-25T05:28:48.919Z,66.44
2024-01-25T05:29:48.905Z,64.63
2024-01-25T05:30:48.976Z,66.90
2024-01-25T05:31:48.881Z,65.86
2024-01-25T05:32:49.047Z,65.04
2024-01-25T05:33:48.997Z,64.55
2024-01-25T05:34:48.909Z,65.97
2024-01-25T05:35:48.850Z,66.41
2024-01-25T05:36:48.875Z,66.95
2024-01-25T05:37:48.790Z,65.76
2024-01-25T05:38:48.798Z,65.62
2024-01-25T05:39:48.816Z,66.54
2024-01-25T05:40:48.760Z,66.01
2024-01-25T05:41:48.734Z,65.44
2024-01-25T05:42:48.756Z,65.01
2024-01-25T05:43:48.721Z,65.30
2024-01-25T05:44:48.713Z,64.22
2024-01-25T05:45:48.739Z,63.75
2024-01-25T05:46:48.729Z,65.40
2024-01-25T05:47:48.775Z,65.47
2024-01-25T05:48:48.813Z,65.73
2024-01-25T05:49:48.737Z,65.31
2024-01-25T05:50:48.642Z,66.40
2024-01-25T05:51:48.693Z,63.53
2024-01-25T05:52:48.632Z,62.27
2024-01-25T05:53:48.623Z,65.14
2024-01-25T05:54:48.657Z,64.90
2024-01-25T05:55:48.606Z,66.49
2024-01-25T05:56:48.599Z,65.66
2024-01-25T05:57:48.562Z,64.07
2024-01-25T05:58:48.558Z,65.30
2024-01-25T05:59:48.593Z,64.37
2024-01-25T06:00:48.665Z,63.48
2024-01-25T06:01:48.589Z,63.05
2024-01-25T06:02:48.688Z,64.32
2024-01-25T06:03:48.623Z,65.03
2024-01-25T06:04:48.637Z,64.37
2024-01-25T06:05:48.673Z,62.82
2024-01-25T06:06:48.726Z,64.32
2024-01-25T06:07:48.552Z,63.75
2024-01-25T06:08:54.986Z,62.87
2024-01-25T06:09:50.485Z,64.37
2024-01-25T06:10:48.449Z,65.88
2024-01-25T06:11:48.432Z,62.54
2024-01-25T06:12:48.836Z,65.33
2024-01-25T06:13:48.545Z,65.21
2024-01-25T06:14:48.418Z,64.86
2024-01-25T06:15:48.443Z,65.19
2024-01-25T06:17:20.348Z,66.06
2024-01-25T06:17:48.398Z,65.59
2024-01-25T06:18:48.430Z,67.65
2024-01-25T06:19:48.439Z,66.79
2024-01-25T06:20:48.305Z,65.12
2024-01-25T06:21:48.351Z,67.48
2024-01-25T06:22:48.305Z,66.67
2024-01-25T06:23:48.270Z,67.30
2024-01-25T06:24:48.318Z,68.86
2024-01-25T06:25:48.264Z,67.20
2024-01-25T06:26:48.262Z,66.48
2024-01-25T06:27:48.303Z,66.52
2024-01-25T06:28:48.244Z,64.30
2024-01-25T06:29:48.224Z,65.59
2024-01-25T06:30:48.254Z,65.88
2024-01-25T06:31:48.199Z,64.52
2024-01-25T06:32:48.258Z,64.98
2024-01-25T06:33:48.308Z,67.04
2024-01-25T06:34:48.288Z,67.42
2024-01-25T06:35:48.179Z,65.52
2024-01-25T06:36:48.179Z,66.11
2024-01-25T06:37:48.156Z,65.67
2024-01-25T06:38:48.156Z,65.04
2024-01-25T06:39:48.218Z,66.22
2024-01-25T06:40:48.128Z,67.99
2024-01-25T06:41:48.116Z,67.07
2024-01-25T06:42:48.151Z,66.43
2024-01-25T06:43:48.112Z,66.93
2024-01-25T06:44:48.068Z,65.52
2024-01-25T06:45:48.125Z,66.56
2024-01-25T06:46:48.068Z,67.57
2024-01-25T06:47:48.088Z,67.85
2024-01-25T06:48:48.209Z,63.53
2024-01-25T06:49:48.088Z,65.54
2024-01-25T06:50:48.114Z,65.57
2024-01-25T06:51:48.022Z,65.41
2024-01-25T06:52:47.992Z,64.29
2024-01-25T06:53:47.965Z,64.75
2024-01-25T06:54:48.002Z,65.16
2024-01-25T06:55:47.958Z,62.51
2024-01-25T06:56:47.958Z,63.15
2024-01-25T06:57:48.551Z,63.13
2024-01-25T06:58:48.922Z,63.31
2024-01-25T06:59:47.899Z,64.69
2024-01-25T07:00:48.008Z,64.29
2024-01-25T07:01:49.019Z,61.03
2024-01-25T07:02:48.005Z,62.86
2024-01-25T07:03:48.036Z,61.61
2024-01-25T07:04:48.973Z,63.42
2024-01-25T07:05:47.927Z,63.57
2024-01-25T07:06:47.995Z,62.37
2024-01-25T07:07:47.970Z,64.09
2024-01-25T07:08:47.809Z,65.71
2024-01-25T07:09:47.818Z,65.84
2024-01-25T07:10:47.796Z,63.10
2024-01-25T07:11:47.800Z,63.45
2024-01-25T07:12:48.066Z,64.87
2024-01-25T07:13:47.742Z,64.89
2024-01-25T07:14:47.773Z,64.92
2024-01-25T07:15:47.773Z,65.59
2024-01-25T07:16:47.726Z,64.43
2024-01-25T07:17:47.851Z,65.21
2024-01-25T07:18:47.864Z,64.04
2024-01-25T07:19:47.800Z,63.67
2024-01-25T07:20:47.807Z,63.40
2024-01-25T07:21:47.711Z,65.24
2024-01-25T07:22:47.668Z,65.80
2024-01-25T07:23:47.653Z,64.35
2024-01-25T07:24:47.672Z,64.88
2024-01-25T07:25:47.649Z,62.34
2024-01-25T07:26:47.630Z,62.34
2024-01-25T07:27:47.676Z,63.54
2024-01-25T07:28:47.700Z,64.68
2024-01-25T07:29:47.590Z,64.49
2024-01-25T07:30:47.590Z,64.89
2024-01-25T07:31:47.586Z,64.82
2024-01-25T07:32:47.618Z,64.54
2024-01-25T07:33:47.633Z,64.46
2024-01-25T07:34:47.648Z,65.86
2024-01-25T07:35:47.528Z,65.64
2024-01-25T07:36:47.563Z,65.26
2024-01-25T07:37:47.533Z,65.84
2024-01-25T07:38:47.505Z,63.28
2024-01-25T07:39:47.520Z,65.89
2024-01-25T07:40:47.491Z,63.20
2024-01-25T07:41:47.449Z,64.12
2024-01-25T07:42:47.470Z,66.02
2024-01-25T07:43:47.439Z,63.93
2024-01-25T07:44:47.426Z,64.45
2024-01-25T07:45:47.476Z,63.96
2024-01-25T07:46:47.394Z,65.66
2024-01-25T07:47:48.203Z,63.69
2024-01-25T07:48:47.555Z,62.49
2024-01-25T07:49:47.526Z,64.40
2024-01-25T07:50:47.536Z,63.38
2024-01-25T07:51:47.368Z,65.84
2024-01-25T07:52:47.328Z,63.72
2024-01-25T07:53:48.323Z,64.30
2024-01-25T07:54:47.345Z,62.76
2024-01-25T07:55:47.357Z,66.44
2024-01-25T07:56:47.343Z,63.60
2024-01-25T07:57:47.366Z,64.04
2024-01-25T07:58:47.280Z,62.71
2024-01-25T07:59:47.260Z,62.03
2024-01-25T08:00:47.548Z,62.84
2024-01-25T08:01:48.361Z,62.88
2024-01-25T08:02:47.244Z,64.43
2024-01-25T08:03:47.448Z,63.78
2024-01-25T08:04:47.401Z,64.16
2024-01-25T08:05:51.410Z,64.47
2024-01-25T08:06:47.320Z,62.11
2024-01-25T08:07:47.320Z,62.86
2024-01-25T08:08:47.165Z,65.30
2024-01-25T08:09:47.168Z,63.16
2024-01-25T08:10:47.331Z,65.39
2024-01-25T08:11:47.175Z,65.31
2024-01-25T08:12:51.426Z,64.06
2024-01-25T08:13:49.338Z,64.78
2024-01-25T08:14:47.107Z,63.29
2024-01-25T08:15:47.140Z,63.16
2024-01-25T08:16:47.179Z,61.57
2024-01-25T08:17:47.250Z,64.83
2024-01-25T08:18:47.130Z,62.93
2024-01-25T08:19:48.459Z,64.43
2024-01-25T08:20:47.311Z,61.82
2024-01-25T08:21:47.080Z,61.67
2024-01-25T08:22:47.053Z,63.42
2024-01-25T08:23:47.024Z,63.70
2024-01-25T08:24:47.017Z,64.15
2024-01-25T08:25:47.036Z,63.07
2024-01-25T08:26:46.976Z,63.41
2024-01-25T08:27:46.994Z,63.10
2024-01-25T08:28:46.978Z,63.76
2024-01-25T08:29:46.978Z,62.08
2024-01-25T08:30:47.003Z,58.69
2024-01-25T08:31:47.042Z,66.12
2024-01-25T08:32:47.035Z,61.32
2024-01-25T08:33:47.964Z,63.05
2024-01-25T08:34:48.060Z,64.03
2024-01-25T08:35:47.004Z,64.35
2024-01-25T08:36:46.997Z,63.30
2024-01-25T08:37:46.960Z,65.63
2024-01-25T08:38:46.859Z,63.52
2024-01-25T08:39:46.893Z,63.99
2024-01-25T08:40:46.909Z,64.02
2024-01-25T08:41:46.822Z,62.85
2024-01-25T08:42:46.868Z,61.69
2024-01-25T08:43:46.860Z,65.00
2024-01-25T08:44:46.803Z,63.75
2024-01-25T08:45:46.839Z,64.35
2024-01-25T08:46:46.856Z,63.48
2024-01-25T08:47:46.802Z,63.45
2024-01-25T08:48:47.046Z,62.12
2024-01-25T08:49:46.932Z,62.49
2024-01-25T08:50:46.850Z,60.49
2024-01-25T08:51:46.757Z,62.45
2024-01-25T08:52:46.721Z,63.14
2024-01-25T08:53:46.691Z,61.80
2024-01-25T08:54:46.733Z,62.69
2024-01-25T08:55:46.689Z,59.01
2024-01-25T08:56:46.665Z,61.22
2024-01-25T08:57:46.754Z,60.54
2024-01-25T08:58:46.639Z,59.57
2024-01-25T08:59:46.620Z,61.94
2024-01-25T09:00:46.861Z,63.90
2024-01-25T09:01:46.745Z,63.13
2024-01-25T09:02:46.597Z,61.89
2024-01-25T09:03:46.647Z,61.69
2024-01-25T09:04:46.648Z,62.36
2024-01-25T09:05:46.740Z,62.60
2024-01-25T09:06:46.604Z,61.36
2024-01-25T09:07:46.661Z,61.64
2024-01-25T09:08:46.550Z,63.03
2024-01-25T09:09:46.556Z,60.87
2024-01-25T09:10:46.605Z,59.02
2024-01-25T09:11:46.505Z,59.47
2024-01-25T09:12:46.530Z,59.58
2024-01-25T09:13:47.032Z,59.29
2024-01-25T09:14:46.465Z,62.07
2024-01-25T09:15:46.504Z,61.41
2024-01-25T09:16:47.486Z,61.14
2024-01-25T09:17:46.786Z,60.57
2024-01-25T09:18:46.604Z,56.61
2024-01-25T09:19:46.552Z,58.07
2024-01-25T09:20:46.425Z,58.83
2024-01-25T09:21:46.488Z,60.38
2024-01-25T09:22:46.382Z,61.94
2024-01-25T09:23:46.387Z,62.66
2024-01-25T09:24:46.412Z,59.73
2024-01-25T09:25:46.519Z,57.70
2024-01-25T09:26:46.363Z,57.76
2024-01-25T09:27:46.415Z,57.13
2024-01-25T09:28:46.360Z,58.49
2024-01-25T09:29:46.305Z,57.75
2024-01-25T09:30:46.319Z,60.18
2024-01-25T09:31:46.429Z,64.02
2024-01-25T09:32:46.318Z,59.83
2024-01-25T09:33:46.465Z,58.90
2024-01-25T09:34:46.362Z,57.25
2024-01-25T09:35:46.376Z,62.98
2024-01-25T09:36:46.301Z,58.90
2024-01-25T09:37:46.220Z,60.41
2024-01-25T09:38:46.217Z,61.58
2024-01-25T09:39:46.277Z,59.66
2024-01-25T09:40:46.323Z,60.01
2024-01-25T09:41:47.361Z,62.37
2024-01-25T09:42:46.280Z,58.60
2024-01-25T09:43:46.161Z,58.59
2024-01-25T09:44:46.145Z,62.33
2024-01-25T09:45:46.170Z,58.51
2024-01-25T09:46:47.323Z,57.47
2024-01-25T09:47:46.173Z,58.30
2024-01-25T09:48:46.276Z,57.46
2024-01-25T09:49:46.254Z,59.91
2024-01-25T09:50:46.223Z,59.32
2024-01-25T09:51:46.117Z,57.28
2024-01-25T09:52:46.119Z,59.13
2024-01-25T09:53:46.055Z,61.03
2024-01-25T09:54:46.056Z,55.91
2024-01-25T09:55:46.067Z,58.57
2024-01-25T09:56:46.021Z,58.34
2024-01-25T09:57:46.050Z,59.46
2024-01-25T09:58:47.152Z,56.44
2024-01-25T09:59:46.005Z,54.83
2024-01-25T10:00:46.095Z,57.68
2024-01-25T10:01:46.170Z,60.56
2024-01-25T10:02:45.961Z,56.07
2024-01-25T10:03:46.090Z,61.43
2024-01-25T10:04:45.971Z,56.64
2024-01-25T10:05:45.975Z,58.45
2024-01-25T10:06:45.962Z,54.54
2024-01-25T10:07:46.107Z,55.63
2024-01-25T10:08:45.913Z,58.28
2024-01-25T10:09:45.945Z,59.55
2024-01-25T10:10:46.899Z,59.91
2024-01-25T10:11:51.043Z,57.59
2024-01-25T10:12:46.895Z,56.69
2024-01-25T10:13:45.882Z,59.97
2024-01-25T10:14:45.864Z,58.53
2024-01-25T10:15:45.954Z,59.98
2024-01-25T10:16:45.939Z,56.45
2024-01-25T10:17:59.977Z,60.76
2024-01-25T10:18:48.006Z,58.97
2024-01-25T10:19:46.225Z,61.13
2024-01-25T10:20:45.898Z,59.50
2024-01-25T10:21:46.018Z,59.01
2024-01-25T10:22:45.921Z,57.76
2024-01-25T10:23:45.855Z,60.57
2024-01-25T10:24:45.860Z,58.87
2024-01-25T10:25:45.740Z,56.37
2024-01-25T10:26:45.719Z,57.62
2024-01-25T10:27:45.754Z,60.67
2024-01-25T10:28:45.760Z,55.34
2024-01-25T10:29:45.807Z,56.87
2024-01-25T10:30:45.743Z,59.41
2024-01-25T10:31:45.682Z,58.90
2024-01-25T10:32:45.706Z,62.64
2024-01-25T10:33:45.830Z,60.26
2024-01-25T10:34:45.696Z,59.95
2024-01-25T10:35:45.781Z,59.79
2024-01-25T10:36:45.675Z,56.85
2024-01-25T10:37:45.588Z,60.22
2024-01-25T10:38:45.595Z,61.48
2024-01-25T10:39:45.660Z,62.25
2024-01-25T10:40:47.408Z,59.49
2024-01-25T10:41:46.553Z,60.38
2024-01-25T10:42:45.553Z,60.27
2024-01-25T10:43:45.571Z,64.73
2024-01-25T10:44:45.528Z,61.07
2024-01-25T10:45:45.565Z,60.35
2024-01-25T10:46:45.597Z,60.81
2024-01-25T10:47:45.587Z,60.26
2024-01-25T10:48:45.618Z,62.16
2024-01-25T10:49:45.622Z,62.18
2024-01-25T10:50:45.594Z,61.67
2024-01-25T10:51:45.474Z,62.09
2024-01-25T10:52:45.437Z,63.44
2024-01-25T10:53:45.443Z,65.06
2024-01-25T10:54:45.467Z,61.32
2024-01-25T10:55:45.457Z,61.48
2024-01-25T10:56:45.400Z,60.45
2024-01-25T10:57:45.476Z,61.62
2024-01-25T10:58:45.489Z,60.77
2024-01-25T10:59:45.373Z,57.61
2024-01-25T11:00:45.428Z,61.22
2024-01-25T11:01:45.381Z,59.58
2024-01-25T11:02:45.426Z,60.69
2024-01-25T11:03:45.496Z,61.49
2024-01-25T11:04:45.499Z,61.93
2024-01-25T11:05:45.372Z,60.87
2024-01-25T11:06:45.441Z,61.53
2024-01-25T11:07:45.413Z,61.59
2024-01-25T11:08:45.304Z,60.94
2024-01-25T11:09:45.297Z,62.08
2024-01-25T11:10:45.268Z,62.32
2024-01-25T11:11:45.293Z,64.54
2024-01-25T11:12:45.262Z,61.15
2024-01-25T11:13:45.388Z,59.80
2024-01-25T11:14:45.237Z,61.76
2024-01-25T11:15:45.244Z,62.55
2024-01-25T11:16:45.232Z,63.61
2024-01-25T11:17:45.307Z,63.01
2024-01-25T11:18:45.301Z,67.27
2024-01-25T11:19:45.332Z,63.25
2024-01-25T11:20:45.302Z,63.11
2024-01-25T11:21:45.164Z,60.54
2024-01-25T11:22:45.140Z,63.46
2024-01-25T11:23:45.127Z,62.93
2024-01-25T11:24:45.138Z,61.05
2024-01-25T11:25:45.184Z,64.52
2024-01-25T11:26:45.075Z,61.39
2024-01-25T11:27:45.129Z,61.77
2024-01-25T11:28:45.093Z,61.68
2024-01-25T11:29:45.078Z,60.20
2024-01-25T11:30:45.142Z,60.58
2024-01-25T11:31:45.134Z,62.51
2024-01-25T11:32:45.054Z,60.33
2024-01-25T11:33:45.061Z,61.76
2024-01-25T11:34:45.178Z,60.16
2024-01-25T11:35:46.145Z,61.63
2024-01-25T11:36:45.086Z,64.62
2024-01-25T11:37:44.979Z,63.15
2024-01-25T11:38:44.958Z,64.86
2024-01-25T11:39:44.997Z,63.56
2024-01-25T11:40:45.001Z,61.22
2024-01-25T11:41:44.947Z,64.14
2024-01-25T11:42:44.945Z,63.60
2024-01-25T11:43:44.921Z,61.62
2024-01-25T11:44:44.899Z,61.72
2024-01-25T11:45:45.180Z,59.52
2024-01-25T11:46:45.171Z,62.11
2024-01-25T11:47:44.917Z,63.77
2024-01-25T11:48:44.945Z,63.98
2024-01-25T11:49:44.968Z,63.83
2024-01-25T11:50:44.908Z,63.52
2024-01-25T11:51:44.907Z,61.72
2024-01-25T11:52:44.917Z,61.75
2024-01-25T11:53:44.816Z,60.80
2024-01-25T11:54:44.811Z,65.59
2024-01-25T11:55:44.796Z,62.79
2024-01-25T11:56:44.787Z,61.19
2024-01-25T11:57:44.809Z,62.17
2024-01-25T11:58:44.929Z,63.40
2024-01-25T11:59:44.749Z,63.41
2024-01-25T12:00:44.822Z,59.45
2024-01-25T12:01:45.806Z,61.77
2024-01-25T12:02:44.723Z,64.29
2024-01-25T12:03:44.770Z,63.24
2024-01-25T12:04:44.898Z,63.42
2024-01-25T12:05:44.788Z,60.71
2024-01-25T12:06:44.914Z,66.63
2024-01-25T12:07:44.879Z,61.37
2024-01-25T12:08:44.671Z,60.59
2024-01-25T12:09:44.639Z,63.91
2024-01-25T12:10:44.676Z,64.80
2024-01-25T12:11:44.628Z,60.47
2024-01-25T12:12:44.625Z,61.01
2024-01-25T12:13:44.582Z,57.28
2024-01-25T12:14:44.580Z,57.33
2024-01-25T12:15:44.654Z,63.03
2024-01-25T12:16:44.641Z,60.46
2024-01-25T12:18:17.356Z,60.44
2024-01-25T12:18:45.042Z,59.41
2024-01-25T12:19:44.647Z,55.81
2024-01-25T12:20:44.619Z,57.52
2024-01-25T12:21:44.561Z,61.45
2024-01-25T12:22:44.648Z,62.57
2024-01-25T12:23:44.495Z,59.19
2024-01-25T12:24:53.562Z,59.64
2024-01-25T12:25:46.557Z,60.93
2024-01-25T12:26:44.487Z,60.18
2024-01-25T12:27:44.517Z,62.52
2024-01-25T12:28:44.522Z,61.61
2024-01-25T12:29:44.418Z,60.62
2024-01-25T12:30:44.466Z,61.80
2024-01-25T12:31:44.427Z,64.71
2024-01-25T12:32:44.508Z,58.32
2024-01-25T12:33:44.645Z,62.73
2024-01-25T12:34:45.552Z,65.04
2024-01-25T12:35:44.432Z,60.84
2024-01-25T12:36:44.486Z,62.35
2024-01-25T12:37:44.341Z,61.49
2024-01-25T12:38:44.315Z,60.29
2024-01-25T12:39:44.365Z,58.72
2024-01-25T12:40:44.360Z,66.74
2024-01-25T12:41:44.342Z,61.83
2024-01-25T12:42:44.338Z,63.39
2024-01-25T12:43:45.312Z,61.46
2024-01-25T12:44:44.240Z,61.31
2024-01-25T12:45:44.280Z,61.61
2024-01-25T12:46:44.270Z,61.81
2024-01-25T12:47:44.370Z,62.19
2024-01-25T12:48:44.491Z,63.41
2024-01-25T12:49:44.223Z,62.37
2024-01-25T12:50:44.204Z,61.52
2024-01-25T12:51:44.257Z,62.40
2024-01-25T12:52:44.197Z,61.74